createdAt,value
2022-12-07T00:00:00.870Z,65.9
2022-12-07T00:01:00.311Z,65.9
2022-12-07T00:02:00.383Z,66.0
2022-12-07T00:03:00.463Z,66.1
2022-12-07T00:04:00.430Z,66.2
2022-12-07T00:05:00.339Z,66.4
2022-12-07T00:06:00.543Z,66.4
2022-12-07T00:07:00.353Z,66.3
2022-12-07T00:08:00.364Z,66.2
2022-12-07T00:09:00.338Z,66.1
2022-12-07T00:10:00.724Z,66.1
2022-12-07T00:11:00.478Z,66.2
2022-12-07T00:12:00.433Z,66.3
2022-12-07T00:13:00.351Z,66.2
2022-12-07T00:14:00.362Z,66.2
2022-12-07T00:15:00.342Z,66.2
2022-12-07T00:16:00.399Z,66.2
2022-12-07T00:17:00.371Z,66.3
2022-12-07T00:18:00.538Z,66.3
2022-12-07T00:19:00.391Z,66.3
2022-12-07T00:20:00.659Z,66.3
2022-12-07T00:21:00.391Z,66.3
2022-12-07T00:22:00.321Z,66.3
2022-12-07T00:23:00.346Z,66.3
2022-12-07T00:24:00.532Z,66.3
2022-12-07T00:25:00.342Z,66.3
2022-12-07T00:26:00.288Z,66.3
2022-12-07T00:27:00.571Z,66.3
2022-12-07T00:28:00.318Z,66.3
2022-12-07T00:29:00.259Z,66.4
2022-12-07T00:30:00.990Z,66.4
2022-12-07T00:31:00.304Z,66.4
2022-12-07T00:32:00.443Z,66.4
2022-12-07T00:33:00.355Z,66.3
2022-12-07T00:34:00.372Z,66.3
2022-12-07T00:35:00.345Z,66.4
2022-12-07T00:36:00.423Z,66.4
2022-12-07T00:37:00.298Z,66.4
2022-12-07T00:38:00.265Z,66.4
2022-12-07T00:39:00.412Z,66.4
2022-12-07T00:40:00.574Z,66.4
2022-12-07T00:41:00.299Z,66.4
2022-12-07T00:42:00.486Z,66.4
2022-12-07T00:43:00.591Z,66.3
2022-12-07T00:44:00.282Z,66.3
2022-12-07T00:45:00.449Z,66.3
2022-12-07T00:46:00.431Z,66.3
2022-12-07T00:47:00.380Z,66.4
2022-12-07T00:48:00.449Z,66.3
2022-12-07T00:49:00.351Z,66.4
2022-12-07T00:50:00.781Z,66.3
2022-12-07T00:51:00.336Z,66.3
2022-12-07T00:52:00.345Z,66.2
2022-12-07T00:53:00.283Z,66.1
2022-12-07T00:54:00.541Z,66.3
2022-12-07T00:55:00.305Z,66.3
2022-12-07T00:56:00.340Z,66.2
2022-12-07T00:57:00.296Z,66.2
2022-12-07T00:58:00.420Z,66.1
2022-12-07T00:59:00.291Z,65.9
2022-12-07T01:00:00.786Z,65.9
2022-12-07T01:01:00.312Z,65.8
2022-12-07T01:02:00.337Z,65.7
2022-12-07T01:03:00.322Z,65.7
2022-12-07T01:04:00.345Z,65.7
2022-12-07T01:05:00.278Z,65.7
2022-12-07T01:06:00.537Z,65.6
2022-12-07T01:07:00.331Z,65.5
2022-12-07T01:08:00.393Z,65.5
2022-12-07T01:09:00.301Z,65.4
2022-12-07T01:10:00.595Z,65.3
2022-12-07T01:11:00.401Z,65.4
2022-12-07T01:12:00.545Z,65.5
2022-12-07T01:13:00.528Z,65.4
2022-12-07T01:14:00.324Z,65.4
2022-12-07T01:15:00.319Z,65.3
2022-12-07T01:16:00.292Z,65.4
2022-12-07T01:17:00.398Z,65.3
2022-12-07T01:18:00.515Z,65.1
2022-12-07T01:19:00.359Z,65.0
2022-12-07T01:20:00.954Z,65.0
2022-12-07T01:21:00.297Z,65.0
2022-12-07T01:22:00.276Z,64.8
2022-12-07T01:23:00.359Z,64.9
2022-12-07T01:24:00.401Z,65.0
2022-12-07T01:25:00.322Z,65.0
2022-12-07T01:26:00.356Z,64.9
2022-12-07T01:27:00.279Z,64.9
2022-12-07T01:28:00.521Z,64.8
2022-12-07T01:29:00.336Z,64.7
2022-12-07T01:30:00.925Z,64.7
2022-12-07T01:31:00.533Z,64.6
2022-12-07T01:32:00.461Z,64.5
2022-12-07T01:33:00.521Z,64.5
2022-12-07T01:34:00.789Z,64.4
2022-12-07T01:35:00.613Z,64.4
2022-12-07T01:36:00.894Z,64.5
2022-12-07T01:37:00.282Z,64.7
2022-12-07T01:38:00.504Z,64.7
2022-12-07T01:39:00.402Z,64.8
2022-12-07T01:40:00.671Z,64.7
2022-12-07T01:41:00.340Z,64.5
2022-12-07T01:42:00.704Z,64.6
2022-12-07T01:43:00.899Z,64.8
2022-12-07T01:44:00.390Z,64.8
2022-12-07T01:45:00.504Z,64.7
2022-12-07T01:46:00.510Z,64.7
2022-12-07T01:47:00.340Z,64.9
2022-12-07T01:48:00.409Z,64.9
2022-12-07T01:49:00.284Z,65.1
2022-12-07T01:50:00.761Z,65.0
2022-12-07T01:51:00.321Z,65.1
2022-12-07T01:52:00.355Z,65.1
2022-12-07T01:53:00.408Z,64.9
2022-12-07T01:54:00.525Z,64.9
2022-12-07T01:55:00.316Z,64.9
2022-12-07T01:56:00.422Z,64.9
2022-12-07T01:57:00.326Z,64.9
2022-12-07T01:58:00.419Z,64.9
2022-12-07T01:59:00.292Z,64.8
2022-12-07T02:00:00.876Z,64.9
2022-12-07T02:01:00.421Z,65.0
2022-12-07T02:02:00.307Z,65.1
2022-12-07T02:03:00.430Z,65.1
2022-12-07T02:04:00.297Z,65.1
2022-12-07T02:05:00.319Z,65.2
2022-12-07T02:06:00.614Z,65.0
2022-12-07T02:07:00.327Z,64.9
2022-12-07T02:08:00.435Z,65.0
2022-12-07T02:09:00.351Z,65.0
2022-12-07T02:10:00.645Z,65.0
2022-12-07T02:11:00.280Z,65.0
2022-12-07T02:12:00.475Z,65.0
2022-12-07T02:13:00.481Z,64.9
2022-12-07T02:14:00.342Z,64.9
2022-12-07T02:15:00.377Z,64.9
2022-12-07T02:16:00.397Z,64.9
2022-12-07T02:17:00.384Z,64.9
2022-12-07T02:18:00.696Z,65.0
2022-12-07T02:19:00.389Z,65.0
2022-12-07T02:20:00.495Z,65.1
2022-12-07T02:21:00.259Z,65.0
2022-12-07T02:22:00.305Z,65.0
2022-12-07T02:23:00.251Z,65.0
2022-12-07T02:24:00.485Z,65.0
2022-12-07T02:25:00.437Z,65.1
2022-12-07T02:26:00.473Z,65.2
2022-12-07T02:27:00.302Z,65.3
2022-12-07T02:28:00.594Z,65.3
2022-12-07T02:29:00.443Z,65.3
2022-12-07T02:30:00.777Z,65.3
2022-12-07T02:31:00.444Z,65.4
2022-12-07T02:32:00.371Z,65.5
2022-12-07T02:33:00.262Z,65.8
2022-12-07T02:34:00.330Z,65.9
2022-12-07T02:35:00.263Z,65.8
2022-12-07T02:36:00.668Z,66.0
2022-12-07T02:37:00.312Z,66.2
2022-12-07T02:38:00.333Z,66.2
2022-12-07T02:39:00.282Z,66.0
2022-12-07T02:40:00.796Z,66.0
2022-12-07T02:41:00.286Z,66.0
2022-12-07T02:42:00.363Z,66.2
2022-12-07T02:43:00.339Z,66.5
2022-12-07T02:44:00.281Z,66.5
2022-12-07T02:45:00.253Z,66.4
2022-12-07T02:46:00.324Z,66.8
2022-12-07T02:47:00.250Z,66.9
2022-12-07T02:48:00.460Z,67.3
2022-12-07T02:49:00.305Z,67.5
2022-12-07T02:50:00.768Z,67.5
2022-12-07T02:51:00.318Z,67.6
2022-12-07T02:52:00.314Z,67.8
2022-12-07T02:53:00.331Z,67.9
2022-12-07T02:54:00.453Z,68.2
2022-12-07T02:55:00.334Z,68.4
2022-12-07T02:56:00.353Z,68.4
2022-12-07T02:57:00.286Z,68.7
2022-12-07T02:58:00.482Z,69.1
2022-12-07T02:59:00.298Z,69.3
2022-12-07T03:00:00.711Z,69.3
2022-12-07T03:01:00.282Z,69.4
2022-12-07T03:02:00.350Z,69.4
2022-12-07T03:03:00.419Z,69.4
2022-12-07T03:04:00.257Z,69.5
2022-12-07T03:05:00.289Z,69.6
2022-12-07T03:06:00.442Z,69.8
2022-12-07T03:07:00.282Z,69.9
2022-12-07T03:08:00.542Z,70.2
2022-12-07T03:09:00.367Z,70.0
2022-12-07T03:10:00.588Z,70.2
2022-12-07T03:11:00.308Z,70.1
2022-12-07T03:12:00.408Z,70.0
2022-12-07T03:13:00.349Z,70.2
2022-12-07T03:14:00.271Z,70.2
2022-12-07T03:15:00.320Z,70.3
2022-12-07T03:16:00.406Z,70.4
2022-12-07T03:17:00.283Z,70.2
2022-12-07T03:18:00.538Z,70.2
2022-12-07T03:19:00.276Z,70.2
2022-12-07T03:20:00.927Z,70.2
2022-12-07T03:21:00.318Z,70.3
2022-12-07T03:22:00.361Z,70.3
2022-12-07T03:23:00.304Z,70.0
2022-12-07T03:24:00.442Z,70.0
2022-12-07T03:25:00.365Z,69.9
2022-12-07T03:26:01.039Z,70.0
2022-12-07T03:27:00.303Z,69.9
2022-12-07T03:28:00.498Z,69.9
2022-12-07T03:29:00.274Z,69.8
2022-12-07T03:30:01.024Z,69.6
2022-12-07T03:31:00.329Z,69.4
2022-12-07T03:32:00.276Z,69.4
2022-12-07T03:33:00.272Z,69.5
2022-12-07T03:34:00.246Z,69.6
2022-12-07T03:35:00.287Z,69.6
2022-12-07T03:36:00.500Z,69.6
2022-12-07T03:37:00.273Z,69.5
2022-12-07T03:38:00.244Z,69.5
2022-12-07T03:39:00.308Z,69.6
2022-12-07T03:40:00.699Z,69.5
2022-12-07T03:41:00.283Z,69.4
2022-12-07T03:42:00.425Z,69.4
2022-12-07T03:43:00.362Z,69.3
2022-12-07T03:44:00.428Z,69.3
2022-12-07T03:45:00.359Z,69.2
2022-12-07T03:46:00.352Z,69.4
2022-12-07T03:47:00.307Z,69.5
2022-12-07T03:48:00.409Z,69.5
2022-12-07T03:49:00.286Z,69.4
2022-12-07T03:50:00.895Z,69.5
2022-12-07T03:51:00.331Z,69.7
2022-12-07T03:52:00.316Z,69.6
2022-12-07T03:53:00.343Z,69.7
2022-12-07T03:54:00.412Z,69.8
2022-12-07T03:55:00.310Z,69.7
2022-12-07T03:56:00.296Z,69.6
2022-12-07T03:57:00.279Z,69.8
2022-12-07T03:58:00.270Z,69.8
2022-12-07T03:59:00.536Z,69.8
2022-12-07T04:00:01.023Z,69.7
2022-12-07T04:01:00.275Z,69.4
2022-12-07T04:02:00.391Z,69.5
2022-12-07T04:03:00.448Z,69.3
2022-12-07T04:04:00.297Z,69.3
2022-12-07T04:05:00.285Z,69.3
2022-12-07T04:06:00.553Z,69.2
2022-12-07T04:07:00.273Z,69.2
2022-12-07T04:08:00.322Z,69.3
2022-12-07T04:09:00.280Z,69.5
2022-12-07T04:10:00.816Z,69.7
2022-12-07T04:11:00.253Z,69.6
2022-12-07T04:12:00.438Z,69.6
2022-12-07T04:13:00.284Z,69.5
2022-12-07T04:14:00.473Z,69.4
2022-12-07T04:15:00.397Z,69.2
2022-12-07T04:16:00.397Z,69.3
2022-12-07T04:17:00.278Z,69.1
2022-12-07T04:18:00.413Z,69.1
2022-12-07T04:19:00.375Z,69.2
2022-12-07T04:20:00.956Z,69.2
2022-12-07T04:21:00.334Z,69.2
2022-12-07T04:22:00.360Z,69.1
2022-12-07T04:23:00.296Z,69.0
2022-12-07T04:24:00.398Z,68.9
2022-12-07T04:25:00.293Z,69.0
2022-12-07T04:26:00.287Z,69.2
2022-12-07T04:27:00.329Z,69.3
2022-12-07T04:28:00.341Z,69.1
2022-12-07T04:29:04.801Z,68.9
2022-12-07T04:30:01.027Z,68.8
2022-12-07T04:31:00.379Z,68.8
2022-12-07T04:32:00.275Z,68.9
2022-12-07T04:33:00.281Z,68.8
2022-12-07T04:34:00.315Z,68.6
2022-12-07T04:35:00.252Z,68.5
2022-12-07T04:36:00.514Z,68.5
2022-12-07T04:37:00.281Z,68.5
2022-12-07T04:38:00.282Z,68.5
2022-12-07T04:39:00.259Z,68.6
2022-12-07T04:40:00.776Z,68.8
2022-12-07T04:41:00.304Z,68.9
2022-12-07T04:42:00.591Z,68.8
2022-12-07T04:43:00.265Z,68.9
2022-12-07T04:44:00.249Z,68.8
2022-12-07T04:45:00.668Z,68.6
2022-12-07T04:46:00.252Z,68.4
2022-12-07T04:47:00.399Z,68.2
2022-12-07T04:48:00.361Z,68.2
2022-12-07T04:49:00.313Z,68.2
2022-12-07T04:50:00.903Z,68.1
2022-12-07T04:51:00.293Z,68.0
2022-12-07T04:52:00.285Z,68.0
2022-12-07T04:53:00.298Z,68.0
2022-12-07T04:54:00.431Z,67.8
2022-12-07T04:55:00.377Z,67.7
2022-12-07T04:56:00.322Z,67.8
2022-12-07T04:57:00.304Z,67.9
2022-12-07T04:58:00.317Z,67.8
2022-12-07T04:59:00.285Z,67.8
2022-12-07T05:00:01.001Z,67.9
2022-12-07T05:01:00.485Z,67.9
2022-12-07T05:02:00.330Z,67.8
2022-12-07T05:03:00.248Z,68.0
2022-12-07T05:04:00.303Z,67.9
2022-12-07T05:05:00.287Z,67.8
2022-12-07T05:06:00.471Z,67.9
2022-12-07T05:07:00.246Z,67.9
2022-12-07T05:08:00.327Z,67.8
2022-12-07T05:09:00.275Z,67.8
2022-12-07T05:10:00.687Z,67.6
2022-12-07T05:11:00.280Z,67.4
2022-12-07T05:12:00.393Z,67.5
2022-12-07T05:13:00.274Z,67.5
2022-12-07T05:14:00.271Z,67.5
2022-12-07T05:15:00.359Z,67.3
2022-12-07T05:16:00.589Z,67.1
2022-12-07T05:17:00.316Z,66.9
2022-12-07T05:18:00.406Z,66.7
2022-12-07T05:19:00.276Z,66.5
2022-12-07T05:20:00.986Z,66.2
2022-12-07T05:21:00.279Z,66.2
2022-12-07T05:22:00.280Z,66.1
2022-12-07T05:23:00.277Z,65.7
2022-12-07T05:24:00.429Z,65.5
2022-12-07T05:25:00.256Z,65.3
2022-12-07T05:26:00.254Z,65.3
2022-12-07T05:27:00.279Z,65.3
2022-12-07T05:28:00.285Z,65.1
2022-12-07T05:29:00.286Z,65.2
2022-12-07T05:30:00.641Z,65.0
2022-12-07T05:31:00.410Z,64.9
2022-12-07T05:32:00.580Z,64.7
2022-12-07T05:33:00.307Z,64.5
2022-12-07T05:34:00.371Z,64.6
2022-12-07T05:35:00.322Z,64.3
2022-12-07T05:36:00.431Z,64.1
2022-12-07T05:37:00.322Z,63.8
2022-12-07T05:38:00.337Z,63.3
2022-12-07T05:39:00.276Z,62.6
2022-12-07T05:40:00.789Z,62.2
2022-12-07T05:41:00.246Z,61.9
2022-12-07T05:42:00.510Z,61.6
2022-12-07T05:43:04.621Z,61.5
2022-12-07T05:44:00.262Z,61.8
2022-12-07T05:45:00.283Z,61.4
2022-12-07T05:46:00.425Z,61.3
2022-12-07T05:47:00.413Z,61.3
2022-12-07T05:48:00.569Z,61.4
2022-12-07T05:49:00.305Z,60.9
2022-12-07T05:50:00.731Z,60.9
2022-12-07T05:51:00.283Z,61.0
2022-12-07T05:52:00.281Z,61.0
2022-12-07T05:53:00.304Z,60.8
2022-12-07T05:54:00.428Z,60.7
2022-12-07T05:55:00.307Z,60.6
2022-12-07T05:56:00.246Z,60.3
2022-12-07T05:57:00.308Z,60.1
2022-12-07T05:58:00.268Z,59.9
2022-12-07T05:59:00.252Z,59.6
2022-12-07T06:00:01.040Z,59.5
2022-12-07T06:01:00.309Z,59.2
2022-12-07T06:02:00.457Z,59.0
2022-12-07T06:03:00.709Z,58.8
2022-12-07T06:04:00.307Z,58.5
2022-12-07T06:05:00.341Z,58.2
2022-12-07T06:06:00.514Z,57.9
2022-12-07T06:07:00.330Z,57.8
2022-12-07T06:08:05.664Z,56.5
2022-12-07T06:09:00.360Z,56.0
2022-12-07T06:10:00.753Z,56.4
2022-12-07T06:11:00.302Z,56.3
2022-12-07T06:12:00.564Z,56.3
2022-12-07T06:13:00.280Z,56.3
2022-12-07T06:14:00.281Z,56.2
2022-12-07T06:15:00.314Z,56.0
2022-12-07T06:16:00.266Z,56.0
2022-12-07T06:17:00.442Z,55.6
2022-12-07T06:18:00.460Z,55.3
2022-12-07T06:19:00.330Z,55.0
2022-12-07T06:20:00.835Z,54.7
2022-12-07T06:21:00.308Z,55.0
2022-12-07T06:22:00.312Z,54.8
2022-12-07T06:23:00.253Z,54.3
2022-12-07T06:24:00.469Z,54.6
2022-12-07T06:25:04.658Z,54.1
2022-12-07T06:26:00.292Z,54.6
2022-12-07T06:27:00.250Z,54.4
2022-12-07T06:28:00.252Z,54.5
2022-12-07T06:29:00.345Z,55.0
2022-12-07T06:30:00.987Z,54.8
2022-12-07T06:31:00.282Z,54.9
2022-12-07T06:32:00.323Z,54.8
2022-12-07T06:33:00.532Z,54.6
2022-12-07T06:34:00.343Z,54.3
2022-12-07T06:35:00.304Z,54.3
2022-12-07T06:36:00.489Z,54.2
2022-12-07T06:37:00.284Z,54.2
2022-12-07T06:38:00.272Z,54.2
2022-12-07T06:39:00.243Z,54.3
2022-12-07T06:40:00.858Z,53.9
2022-12-07T06:41:00.308Z,53.4
2022-12-07T06:42:00.399Z,53.0
2022-12-07T06:43:00.273Z,52.5
2022-12-07T06:44:00.246Z,52.4
2022-12-07T06:45:00.306Z,52.4
2022-12-07T06:46:00.458Z,52.3
2022-12-07T06:47:24.902Z,52.3
2022-12-07T06:48:00.544Z,51.8
2022-12-07T06:49:00.426Z,51.2
2022-12-07T06:50:00.605Z,51.1
2022-12-07T06:51:00.307Z,50.7
2022-12-07T06:52:00.291Z,50.2
2022-12-07T06:53:00.301Z,50.0
2022-12-07T06:54:00.573Z,50.1
2022-12-07T06:55:00.348Z,49.4
2022-12-07T06:56:00.292Z,49.1
2022-12-07T06:57:00.302Z,49.3
2022-12-07T06:58:00.372Z,49.3
2022-12-07T06:59:00.312Z,49.3
2022-12-07T07:00:00.943Z,48.6
2022-12-07T07:01:00.485Z,47.9
2022-12-07T07:02:00.390Z,47.0
2022-12-07T07:03:00.251Z,47.5
2022-12-07T07:04:00.408Z,46.8
2022-12-07T07:05:00.387Z,46.0
2022-12-07T07:06:00.373Z,46.5
2022-12-07T07:07:00.599Z,47.0
2022-12-07T07:08:22.268Z,47.0
2022-12-07T07:09:00.536Z,47.0
2022-12-07T07:10:00.677Z,47.3
2022-12-07T07:11:00.294Z,47.4
2022-12-07T07:12:00.496Z,47.4
2022-12-07T07:13:00.344Z,46.9
2022-12-07T07:14:00.434Z,47.4
2022-12-07T07:15:00.360Z,47.8
2022-12-07T07:16:00.292Z,47.9
2022-12-07T07:17:00.437Z,47.1
2022-12-07T07:18:06.066Z,47.1
2022-12-07T07:19:00.491Z,47.7
2022-12-07T07:20:00.855Z,47.8
2022-12-07T07:21:00.366Z,47.4
2022-12-07T07:22:00.248Z,47.1
2022-12-07T07:23:00.307Z,47.4
2022-12-07T07:24:00.440Z,47.3
2022-12-07T07:25:00.268Z,47.5
2022-12-07T07:26:00.340Z,47.4
2022-12-07T07:27:00.282Z,47.2
2022-12-07T07:28:00.333Z,47.0
2022-12-07T07:29:00.263Z,47.8
2022-12-07T07:30:01.052Z,48.6
2022-12-07T07:31:00.452Z,49.4
2022-12-07T07:32:06.275Z,49.9
2022-12-07T07:33:00.369Z,50.1
2022-12-07T07:34:00.444Z,50.0
2022-12-07T07:35:00.413Z,49.6
2022-12-07T07:36:00.403Z,49.6
2022-12-07T07:37:00.277Z,49.1
2022-12-07T07:38:00.284Z,49.3
2022-12-07T07:39:00.303Z,49.1
2022-12-07T07:40:00.650Z,49.0
2022-12-07T07:41:00.285Z,49.3
2022-12-07T07:42:00.395Z,49.1
2022-12-07T07:43:00.292Z,48.9
2022-12-07T07:44:00.305Z,48.7
2022-12-07T07:45:00.282Z,48.3
2022-12-07T07:46:00.358Z,48.3
2022-12-07T07:47:00.314Z,48.7
2022-12-07T07:48:00.459Z,49.0
2022-12-07T07:49:00.292Z,49.5
2022-12-07T07:50:00.730Z,49.4
2022-12-07T07:51:00.302Z,50.4
2022-12-07T07:52:00.292Z,51.0
2022-12-07T07:53:00.276Z,51.1
2022-12-07T07:54:00.648Z,51.2
2022-12-07T07:55:00.271Z,51.2
2022-12-07T07:56:00.352Z,50.9
2022-12-07T07:57:00.307Z,51.0
2022-12-07T07:58:00.296Z,50.7
2022-12-07T07:59:00.299Z,51.2
2022-12-07T08:00:00.967Z,50.5
2022-12-07T08:01:00.411Z,49.8
2022-12-07T08:02:00.336Z,49.0
2022-12-07T08:03:00.263Z,48.1
2022-12-07T08:04:00.270Z,47.0
2022-12-07T08:05:00.469Z,46.7
2022-12-07T08:06:00.513Z,46.7
2022-12-07T08:07:00.323Z,46.7
2022-12-07T08:08:00.351Z,46.6
2022-12-07T08:09:00.309Z,46.6
2022-12-07T08:10:00.904Z,46.0
2022-12-07T08:11:00.426Z,46.0
2022-12-07T08:12:00.413Z,45.5
2022-12-07T08:13:00.252Z,44.9
2022-12-07T08:14:00.248Z,45.1
2022-12-07T08:15:00.308Z,45.2
2022-12-07T08:16:00.321Z,45.1
2022-12-07T08:17:00.277Z,43.9
2022-12-07T08:18:00.383Z,43.5
2022-12-07T08:19:00.248Z,41.8
2022-12-07T08:20:00.852Z,39.3
2022-12-07T08:21:00.481Z,39.3
2022-12-07T08:22:00.279Z,39.0
2022-12-07T08:23:00.287Z,39.3
2022-12-07T08:24:00.433Z,37.7
2022-12-07T08:25:00.251Z,37.6
2022-12-07T08:26:00.287Z,37.7
2022-12-07T08:27:00.261Z,38.7
2022-12-07T08:28:00.277Z,39.4
2022-12-07T08:29:00.254Z,39.1
2022-12-07T08:30:00.860Z,39.1
2022-12-07T08:31:00.360Z,39.3
2022-12-07T08:32:01.018Z,39.1
2022-12-07T08:33:00.286Z,39.3
2022-12-07T08:34:00.321Z,39.0
2022-12-07T08:35:00.264Z,39.5
2022-12-07T08:36:00.527Z,39.9
2022-12-07T08:37:00.432Z,40.3
2022-12-07T08:38:00.327Z,40.8
2022-12-07T08:40:00.691Z,41.4
2022-12-07T08:41:00.342Z,41.9
2022-12-07T08:42:00.461Z,42.7
2022-12-07T08:43:00.325Z,43.3
2022-12-07T08:44:00.247Z,43.9
2022-12-07T08:45:00.281Z,44.7
2022-12-07T08:46:00.311Z,45.2
2022-12-07T08:47:00.267Z,45.7
2022-12-07T08:48:00.522Z,46.1
2022-12-07T08:49:00.338Z,46.4
2022-12-07T08:50:00.555Z,46.5
2022-12-07T08:51:00.287Z,46.6
2022-12-07T08:52:00.437Z,46.6
2022-12-07T08:53:00.249Z,46.5
2022-12-07T08:54:00.516Z,46.6
2022-12-07T08:55:00.285Z,46.6
2022-12-07T08:56:00.280Z,46.4
2022-12-07T08:57:00.345Z,46.6
2022-12-07T08:58:00.290Z,46.7
2022-12-07T08:59:00.258Z,47.0
2022-12-07T09:00:00.806Z,47.2
2022-12-07T09:01:00.257Z,47.3
2022-12-07T09:02:00.407Z,47.4
2022-12-07T09:03:00.295Z,47.8
2022-12-07T09:04:00.285Z,47.8
2022-12-07T09:05:00.262Z,48.1
2022-12-07T09:06:00.619Z,48.3
2022-12-07T09:07:00.342Z,48.2
2022-12-07T09:08:00.331Z,48.1
2022-12-07T09:09:00.282Z,48.4
2022-12-07T09:10:00.729Z,48.3
2022-12-07T09:11:00.247Z,47.9
2022-12-07T09:12:00.415Z,47.3
2022-12-07T09:13:00.296Z,46.2
2022-12-07T09:14:00.255Z,45.4
2022-12-07T09:15:00.335Z,45.3
2022-12-07T09:16:00.343Z,45.2
2022-12-07T09:17:00.322Z,45.6
2022-12-07T09:18:00.384Z,45.8
2022-12-07T09:19:00.335Z,45.9
2022-12-07T09:20:00.808Z,45.9
2022-12-07T09:21:00.275Z,45.9
2022-12-07T09:22:00.427Z,45.8
2022-12-07T09:23:00.299Z,45.5
2022-12-07T09:24:00.303Z,45.7
2022-12-07T09:25:00.283Z,45.8
2022-12-07T09:26:00.255Z,45.5
2022-12-07T09:27:00.260Z,45.5
2022-12-07T09:28:00.257Z,45.6
2022-12-07T09:29:00.268Z,45.2
2022-12-07T09:30:00.861Z,44.9
2022-12-07T09:31:22.856Z,44.8
2022-12-07T09:32:00.383Z,44.3
2022-12-07T09:33:00.275Z,44.3
2022-12-07T09:34:00.491Z,45.1
2022-12-07T09:35:00.356Z,45.2
2022-12-07T09:36:00.420Z,45.2
2022-12-07T09:37:00.348Z,45.5
2022-12-07T09:38:00.291Z,45.6
2022-12-07T09:39:00.264Z,45.5
2022-12-07T09:40:00.267Z,45.2
2022-12-07T09:41:00.274Z,44.2
2022-12-07T09:42:00.614Z,43.5
2022-12-07T09:43:00.347Z,43.1
2022-12-07T09:44:00.283Z,43.4
2022-12-07T09:45:00.283Z,43.4
2022-12-07T09:46:00.316Z,42.9
2022-12-07T09:47:00.276Z,43.1
2022-12-07T09:48:00.398Z,43.4
2022-12-07T09:49:00.284Z,43.5
2022-12-07T09:50:00.686Z,43.7
2022-12-07T09:51:00.256Z,44.1
2022-12-07T09:52:00.352Z,44.6
2022-12-07T09:53:00.501Z,44.9
2022-12-07T09:54:00.441Z,45.1
2022-12-07T09:55:00.939Z,45.0
2022-12-07T09:56:00.308Z,44.9
2022-12-07T09:57:00.279Z,44.6
2022-12-07T09:58:00.346Z,44.8
2022-12-07T09:59:00.287Z,44.6
2022-12-07T10:00:00.442Z,44.9
2022-12-07T10:01:00.269Z,44.8
2022-12-07T10:02:00.402Z,45.1
2022-12-07T10:03:00.359Z,45.0
2022-12-07T10:04:00.272Z,45.0
2022-12-07T10:05:00.849Z,45.3
2022-12-07T10:06:00.479Z,45.4
2022-12-07T10:07:00.404Z,45.9
2022-12-07T10:08:00.511Z,46.2
2022-12-07T10:09:00.517Z,46.4
2022-12-07T10:10:00.317Z,46.8
2022-12-07T10:11:00.386Z,46.6
2022-12-07T10:12:00.505Z,46.8
2022-12-07T10:13:00.330Z,47.1
2022-12-07T10:14:00.271Z,47.3
2022-12-07T10:15:08.586Z,47.4
2022-12-07T10:16:06.593Z,47.8
2022-12-07T10:17:00.295Z,47.9
2022-12-07T10:18:00.445Z,47.9
2022-12-07T10:19:00.324Z,48.4
2022-12-07T10:20:00.262Z,48.7
2022-12-07T10:21:00.270Z,48.7
2022-12-07T10:22:00.411Z,48.8
2022-12-07T10:23:00.451Z,49.2
2022-12-07T10:24:00.455Z,49.5
2022-12-07T10:25:00.835Z,49.7
2022-12-07T10:26:00.282Z,49.9
2022-12-07T10:27:00.283Z,49.7
2022-12-07T10:28:00.259Z,49.9
2022-12-07T10:29:00.293Z,49.8
2022-12-07T10:30:00.465Z,49.9
2022-12-07T10:31:00.782Z,49.8
2022-12-07T10:32:00.309Z,49.8
2022-12-07T10:33:00.342Z,49.8
2022-12-07T10:34:00.271Z,49.8
2022-12-07T10:35:00.333Z,50.0
2022-12-07T10:36:00.546Z,50.1
2022-12-07T10:37:00.270Z,50.2
2022-12-07T10:38:00.687Z,50.2
2022-12-07T10:39:00.441Z,50.3
2022-12-07T10:40:00.452Z,50.4
2022-12-07T10:41:00.518Z,50.4
2022-12-07T10:42:00.478Z,50.2
2022-12-07T10:43:00.303Z,50.2
2022-12-07T10:44:00.265Z,50.3
2022-12-07T10:45:00.841Z,50.2
2022-12-07T10:46:11.446Z,50.2
2022-12-07T10:47:00.343Z,49.8
2022-12-07T10:48:00.672Z,49.1
2022-12-07T10:49:00.311Z,49.4
2022-12-07T10:50:00.290Z,49.4
2022-12-07T10:51:00.445Z,49.3
2022-12-07T10:52:00.253Z,49.3
2022-12-07T10:53:00.251Z,49.2
2022-12-07T10:54:00.553Z,49.3
2022-12-07T10:55:00.848Z,49.5
2022-12-07T10:56:00.339Z,49.9
2022-12-07T10:57:00.257Z,50.2
2022-12-07T10:58:00.349Z,50.4
2022-12-07T10:59:00.325Z,50.8
2022-12-07T11:00:00.454Z,51.0
2022-12-07T11:01:00.346Z,51.0
2022-12-07T11:02:00.372Z,51.2
2022-12-07T11:03:00.275Z,50.9
2022-12-07T11:04:00.249Z,50.2
2022-12-07T11:05:00.600Z,50.0
2022-12-07T11:06:00.418Z,49.4
2022-12-07T11:07:00.282Z,49.2
2022-12-07T11:08:00.354Z,49.2
2022-12-07T11:09:00.283Z,49.2
2022-12-07T11:10:08.549Z,49.2
2022-12-07T11:11:00.396Z,49.1
2022-12-07T11:12:00.371Z,49.4
2022-12-07T11:13:00.280Z,49.7
2022-12-07T11:14:00.272Z,49.0
2022-12-07T11:15:00.253Z,49.1
2022-12-07T11:16:00.331Z,49.0
2022-12-07T11:17:00.303Z,49.1
2022-12-07T11:18:00.454Z,49.2
2022-12-07T11:19:00.293Z,49.3
2022-12-07T11:20:00.510Z,49.4
2022-12-07T11:21:00.252Z,49.4
2022-12-07T11:22:00.374Z,49.6
2022-12-07T11:23:00.297Z,49.8
2022-12-07T11:24:00.457Z,49.8
2022-12-07T11:25:00.340Z,50.0
2022-12-07T11:26:00.495Z,50.0
2022-12-07T11:27:00.277Z,50.1
2022-12-07T11:28:00.351Z,50.4
2022-12-07T11:29:00.440Z,50.4
2022-12-07T11:30:01.104Z,50.7
2022-12-07T11:31:00.455Z,51.0
2022-12-07T11:32:00.406Z,51.2
2022-12-07T11:33:00.565Z,51.2
2022-12-07T11:34:00.557Z,51.3
2022-12-07T11:35:00.425Z,51.4
2022-12-07T11:36:00.528Z,51.6
2022-12-07T11:37:00.309Z,51.8
2022-12-07T11:38:00.306Z,51.9
2022-12-07T11:39:00.296Z,51.9
2022-12-07T11:40:00.591Z,51.9
2022-12-07T11:41:00.424Z,51.9
2022-12-07T11:42:00.502Z,51.9
2022-12-07T11:43:00.269Z,52.0
2022-12-07T11:44:00.290Z,52.2
2022-12-07T11:45:00.258Z,52.3
2022-12-07T11:46:00.273Z,52.3
2022-12-07T11:47:00.334Z,52.4
2022-12-07T11:48:00.406Z,52.4
2022-12-07T11:49:00.260Z,52.4
2022-12-07T11:50:00.259Z,52.4
2022-12-07T11:51:00.277Z,52.6
2022-12-07T11:52:00.276Z,52.7
2022-12-07T11:53:00.259Z,52.9
2022-12-07T11:54:00.514Z,53.0
2022-12-07T11:55:00.262Z,53.1
2022-12-07T11:56:00.279Z,53.2
2022-12-07T11:57:00.466Z,53.2
2022-12-07T11:58:00.305Z,53.3
2022-12-07T11:59:00.295Z,53.4
2022-12-07T12:00:00.903Z,53.3
2022-12-07T12:01:00.298Z,53.2
2022-12-07T12:02:00.391Z,53.1
2022-12-07T12:03:00.375Z,53.0
2022-12-07T12:04:00.280Z,53.2
2022-12-07T12:05:00.257Z,53.2
2022-12-07T12:06:00.491Z,53.1
2022-12-07T12:10:00.292Z,52.7
2022-12-07T12:11:00.263Z,52.7
2022-12-07T12:15:00.462Z,52.3
2022-12-07T12:16:00.366Z,52.6
2022-12-07T12:17:00.341Z,52.8
2022-12-07T12:18:00.544Z,52.9
2022-12-07T12:19:00.294Z,53.1
2022-12-07T12:20:00.287Z,53.3
2022-12-07T12:21:00.261Z,53.4
2022-12-07T12:22:00.255Z,53.6
2022-12-07T12:23:00.321Z,53.8
2022-12-07T12:24:00.426Z,54.1
2022-12-07T12:25:00.728Z,54.3
2022-12-07T12:26:00.300Z,54.7
2022-12-07T12:27:00.439Z,55.1
2022-12-07T12:28:00.283Z,55.2
2022-12-07T12:29:00.360Z,55.3
2022-12-07T12:30:00.545Z,55.3
2022-12-07T12:31:00.324Z,55.3
2022-12-07T12:32:00.374Z,55.6
2022-12-07T12:33:00.294Z,55.6
2022-12-07T12:34:00.279Z,55.5
2022-12-07T12:35:00.308Z,55.5
2022-12-07T12:36:00.574Z,55.6
2022-12-07T12:37:00.367Z,55.6
2022-12-07T12:38:00.366Z,55.6
2022-12-07T12:39:00.388Z,55.6
2022-12-07T12:40:00.409Z,55.6
2022-12-07T12:41:00.342Z,56.2
2022-12-07T12:42:00.670Z,57.8
2022-12-07T12:43:00.256Z,59.5
2022-12-07T12:44:00.365Z,60.7
2022-12-07T12:45:00.595Z,61.3
2022-12-07T12:46:00.337Z,62.7
2022-12-07T12:47:00.356Z,61.8
2022-12-07T12:48:00.416Z,62.6
2022-12-07T12:49:00.258Z,61.4
2022-12-07T12:50:00.418Z,62.0
2022-12-07T12:51:00.412Z,62.2
2022-12-07T12:52:00.287Z,60.6
2022-12-07T12:53:00.381Z,60.4
2022-12-07T12:54:00.443Z,60.8
2022-12-07T12:55:00.700Z,60.8
2022-12-07T12:56:00.374Z,60.8
2022-12-07T12:57:00.405Z,60.5
2022-12-07T12:58:00.566Z,59.6
2022-12-07T12:59:00.247Z,61.2
2022-12-07T13:00:00.337Z,60.9
2022-12-07T13:01:00.339Z,60.0
2022-12-07T13:02:00.360Z,59.0
2022-12-07T13:03:00.240Z,59.1
2022-12-07T13:04:00.273Z,58.0
2022-12-07T13:05:00.590Z,57.4
2022-12-07T13:06:00.488Z,57.8
2022-12-07T13:07:00.254Z,58.7
2022-12-07T13:08:00.345Z,58.0
2022-12-07T13:09:00.276Z,58.2
2022-12-07T13:10:00.257Z,61.1
2022-12-07T13:11:00.312Z,60.4
2022-12-07T13:12:00.436Z,61.5
2022-12-07T13:13:00.517Z,61.2
2022-12-07T13:14:00.247Z,61.0
2022-12-07T13:15:00.748Z,59.4
2022-12-07T13:16:00.279Z,59.2
2022-12-07T13:17:00.389Z,59.7
2022-12-07T13:18:00.419Z,60.6
2022-12-07T13:19:00.462Z,59.2
2022-12-07T13:20:00.293Z,59.8
2022-12-07T13:21:00.318Z,62.4
2022-12-07T13:22:00.247Z,60.5
2022-12-07T13:23:00.247Z,60.8
2022-12-07T13:24:00.632Z,59.8
2022-12-07T13:25:00.916Z,59.3